Airfield :







YOU CAN JOIN US ON...

 
LOGIN :

Register | Disclaimer

   EN    FR    IT 

 









Legend :    VFR   Marginal VFR   IFR   Intensive IFR   Very Intensive IFR
Visi :
Ceiling :
>= 8 km
>= 3000ft
5 to 8 km
1000 to 3000 ft
1500m to 5 km
500 to 1000 ft
800 to 1500m
200 to 500 ft
< 800m
< 200 ft
Symbols :   Thunderstorms  Fog  Heavy snow  Heavy precipitations  Wind > 20 kt






- Airport Elevation : 335 ft
- IATA code : BTV


KBTV - Burlington International

CURRENT METAR :
  • 041654Z 14007KT 10SM -RA FEW050 OVC110 22/19 A2996 RMK AO2 SLP146 P0002 T02170194

EXPIRED METARs :
  • 041554Z 11007KT 10SM -RA OVC100 22/19 A2997 RMK AO2 SLP149 P0002 T02170194
  • 041454Z 12006KT 10SM -RA BKN090 OVC110 21/19 A3000 RMK AO2 SLP158 P0002 60029 T02110189 56010

TAF KBTV
Valid from the 04 at 13:00 until the 05 at 12:00 UTC


041317Z 0413/0512 12007KT P6SM -RA SCT010 OVC050
TEMPO 0413/0417 3SM RA BR OVC010
FM041900 03018G22KT 6SM -SHRA BR SCT021 OVC040 WS020/10040KT
FM042200 27018G28KT 2SM +RA BR SCT013 OVC024 WS020/09050KT
FM050200 05013G21KT 2SM +RA BR SCT011 OVC020
FM050600 21012KT 6SM -RA BR SCT017 BKN030
KZBW FIR / North America



MET'MAP, your aeronautical weather chart ! - Copyright ORBIFLY December 2007 - Disclaimer

ORBIFLY MET'MAP TEAM :

Programming & Development : Alexandra Zaïnal
Concept & original design : Baudouin d'Aumeries
Assistance for programming : Marc-Olivier Méhu
Technical & hardware support : Manuel Goepfert

Contact : metmap@orbifly.com




SOURCES & CREDITS :

   NOAA